createdAt,value
2023-02-06T00:03:20.535Z,100033.41
2023-02-06T00:08:22.991Z,100032.31
2023-02-06T00:13:25.018Z,100029.78
2023-02-06T00:18:27.291Z,100042.16
2023-02-06T00:23:29.247Z,100046.69
2023-02-06T00:28:31.402Z,100037.94
2023-02-06T00:33:33.638Z,100029.16
2023-02-06T00:38:38.530Z,100031.22
2023-02-06T00:43:42.031Z,100032.69
2023-02-06T00:48:44.135Z,100024.25
2023-02-06T00:53:46.608Z,100022.59
2023-02-06T00:58:48.876Z,100019.97
2023-02-06T01:03:51.101Z,100023.75
2023-02-06T01:08:53.360Z,100017.38
2023-02-06T01:13:55.630Z,100034.69
2023-02-06T01:18:57.828Z,100020.19
2023-02-06T01:23:59.880Z,100029.97
2023-02-06T01:29:02.918Z,100039.63
2023-02-06T01:34:05.938Z,100037.97
2023-02-06T01:39:08.371Z,100038.94
2023-02-06T01:44:19.857Z,100033.78
2023-02-06T01:49:34.534Z,100020.53
2023-02-06T01:54:36.875Z,100016.38
2023-02-06T01:59:44.201Z,100019.50
2023-02-06T02:04:46.927Z,100017.72
2023-02-06T02:09:49.282Z,100032.53
2023-02-06T02:14:54.496Z,100029.00
2023-02-06T02:20:24.023Z,100028.13
2023-02-06T02:25:57.041Z,100032.41
2023-02-06T02:31:46.863Z,100024.06
2023-02-06T02:37:07.360Z,100020.22
2023-02-06T02:42:28.555Z,100020.13
2023-02-06T02:47:43.663Z,100016.25
2023-02-06T02:52:46.701Z,100007.94
2023-02-06T02:57:56.292Z,100010.50
2023-02-06T03:02:59.340Z,100008.34
2023-02-06T03:08:34.468Z,100012.81
2023-02-06T03:13:48.843Z,100005.91
2023-02-06T03:19:11.034Z,100007.72
2023-02-06T03:24:31.968Z,100013.31
2023-02-06T03:29:37.423Z,100005.56
2023-02-06T03:35:08.445Z,99994.22
2023-02-06T03:40:11.589Z,100000.97
2023-02-06T03:45:26.470Z,99991.94
2023-02-06T03:50:29.150Z,100000.81
2023-02-06T03:55:31.476Z,100010.31
2023-02-06T04:00:35.794Z,100015.31
2023-02-06T04:05:39.271Z,100016.69
2023-02-06T04:10:41.291Z,100022.97
2023-02-06T04:15:43.501Z,100018.69
2023-02-06T04:20:45.785Z,100025.69
2023-02-06T04:25:48.338Z,100023.22
2023-02-06T04:30:50.567Z,100013.53
2023-02-06T04:35:52.667Z,100010.69
2023-02-06T04:40:54.651Z,100009.97
2023-02-06T04:45:56.693Z,100017.59
2023-02-06T04:50:58.864Z,100011.88
2023-02-06T04:56:07.327Z,100006.69
2023-02-06T05:01:09.484Z,100013.81
2023-02-06T05:06:11.919Z,100009.28
2023-02-06T05:11:13.914Z,100021.88
2023-02-06T05:16:17.691Z,100021.53
2023-02-06T05:21:20.010Z,100018.53
2023-02-06T05:26:22.109Z,100031.06
2023-02-06T05:31:24.377Z,100022.41
2023-02-06T05:36:26.514Z,100024.56
2023-02-06T05:41:28.518Z,100023.00
2023-02-06T05:46:30.776Z,100030.56
2023-02-06T05:51:32.803Z,100027.94
2023-02-06T05:56:34.827Z,100030.19
2023-02-06T06:01:36.978Z,100032.22
2023-02-06T06:06:39.042Z,100017.84
2023-02-06T06:11:41.076Z,100013.91
2023-02-06T06:16:43.230Z,100029.63
2023-02-06T06:21:45.482Z,100036.94
2023-02-06T06:26:47.959Z,100033.44
2023-02-06T06:31:50.328Z,100042.53
2023-02-06T06:36:52.461Z,100049.75
2023-02-06T06:41:54.607Z,100038.94
2023-02-06T06:46:56.746Z,100034.91
2023-02-06T06:51:58.968Z,100044.34
2023-02-06T06:57:00.998Z,100051.66
2023-02-06T07:02:03.218Z,100058.50
2023-02-06T07:07:05.374Z,100046.25
2023-02-06T07:12:07.702Z,100054.88
2023-02-06T07:17:09.735Z,100046.25
2023-02-06T07:22:11.798Z,100052.66
2023-02-06T07:27:14.042Z,100055.47
2023-02-06T07:32:16.664Z,100061.69
2023-02-06T07:37:18.943Z,100067.50
2023-02-06T07:42:20.954Z,100061.44
2023-02-06T07:47:30.079Z,100061.44
2023-02-06T07:52:32.240Z,100064.09
2023-02-06T07:57:34.298Z,100059.97
2023-02-06T08:02:36.317Z,100058.03
2023-02-06T08:07:38.363Z,100044.25
2023-02-06T08:12:40.454Z,100052.59
2023-02-06T08:17:42.890Z,100054.50
2023-02-06T08:22:44.982Z,100048.78
2023-02-06T08:27:47.533Z,100042.94
2023-02-06T08:32:50.133Z,100038.25
2023-02-06T08:37:52.238Z,100039.50
2023-02-06T08:42:56.504Z,100053.91
2023-02-06T08:47:58.860Z,100050.06
2023-02-06T08:53:00.892Z,100042.25
2023-02-06T08:58:04.027Z,100041.53
2023-02-06T09:03:06.222Z,100060.50
2023-02-06T09:08:08.951Z,100058.25
2023-02-06T09:13:11.217Z,100062.19
2023-02-06T09:18:13.209Z,100047.78
2023-02-06T09:23:19.184Z,100050.94
2023-02-06T09:28:21.420Z,100048.03
2023-02-06T09:33:24.176Z,100047.00
2023-02-06T09:38:26.168Z,100038.81
2023-02-06T09:43:32.175Z,100027.22
2023-02-06T09:48:39.512Z,100020.34
2023-02-06T09:54:12.881Z,100009.66
2023-02-06T09:59:32.908Z,100006.72
2023-02-06T10:05:36.798Z,99982.38
2023-02-06T10:10:53.455Z,99990.91
2023-02-06T10:16:07.345Z,99977.44
2023-02-06T10:21:31.563Z,99991.97
2023-02-06T10:26:38.928Z,99968.16
2023-02-06T10:32:01.880Z,99973.25
2023-02-06T10:37:29.754Z,99970.78
2023-02-06T10:42:52.790Z,99962.97
2023-02-06T10:48:09.599Z,99966.84
2023-02-06T10:53:35.468Z,99965.41
2023-02-06T10:58:46.244Z,99971.66
2023-02-06T11:04:04.017Z,99957.41
2023-02-06T11:09:06.386Z,99957.91
2023-02-06T11:14:35.203Z,99949.72
2023-02-06T11:19:46.767Z,99950.53
2023-02-06T11:25:01.580Z,99933.81
2023-02-06T11:30:27.485Z,99928.69
2023-02-06T11:35:54.198Z,99919.81
2023-02-06T11:41:01.348Z,99928.03
2023-02-06T11:46:42.238Z,99923.81
2023-02-06T11:52:03.730Z,99914.28
2023-02-06T11:57:21.105Z,99920.00
2023-02-06T12:02:31.628Z,99920.09
2023-02-06T12:08:10.704Z,99904.94
2023-02-06T12:13:30.946Z,99901.06
2023-02-06T12:18:42.360Z,99890.50
2023-02-06T12:23:52.955Z,99887.84
2023-02-06T12:29:04.823Z,99881.19
2023-02-06T12:34:15.556Z,99878.38
2023-02-06T12:39:22.990Z,99880.63
2023-02-06T12:44:57.677Z,99880.66
2023-02-06T12:50:44.354Z,99877.41
2023-02-06T12:56:00.873Z,99856.81
2023-02-06T13:01:33.003Z,99863.78
2023-02-06T13:07:05.069Z,99858.22
2023-02-06T13:12:19.866Z,99841.75
2023-02-06T13:17:38.865Z,99843.72
2023-02-06T13:22:51.101Z,99841.50
2023-02-06T13:27:55.711Z,99836.91
2023-02-06T13:33:20.911Z,99852.09
2023-02-06T13:38:22.868Z,99853.66
2023-02-06T13:43:30.888Z,99841.88
2023-02-06T13:49:15.219Z,99839.31
2023-02-06T13:54:38.512Z,99831.22
2023-02-06T14:00:00.795Z,99833.06
2023-02-06T14:05:06.936Z,99845.31
2023-02-06T14:11:00.946Z,99848.38
2023-02-06T14:16:45.002Z,99849.66
2023-02-06T14:22:36.750Z,99846.16
2023-02-06T14:28:33.096Z,99840.19
2023-02-06T14:34:00.280Z,99850.44
2023-02-06T14:39:40.822Z,99849.66
2023-02-06T14:44:50.692Z,99846.69
2023-02-06T14:49:56.714Z,99862.38
2023-02-06T14:54:59.081Z,99857.97
2023-02-06T15:00:17.642Z,99847.25
2023-02-06T15:05:26.551Z,99849.66
2023-02-06T15:10:36.718Z,99841.22
2023-02-06T15:15:39.100Z,99849.44
2023-02-06T15:20:45.334Z,99842.81
2023-02-06T15:26:05.672Z,99850.81
2023-02-06T15:31:21.570Z,99847.94
2023-02-06T15:36:38.378Z,99831.63
2023-02-06T15:41:44.546Z,99837.28
2023-02-06T15:46:49.296Z,99839.41
2023-02-06T15:51:55.146Z,99851.88
2023-02-06T15:57:17.322Z,99852.31
2023-02-06T16:02:31.043Z,99854.13
2023-02-06T16:07:36.178Z,99851.88
2023-02-06T16:12:42.593Z,99844.03
2023-02-06T16:17:44.634Z,99839.31
2023-02-06T16:22:47.178Z,99835.63
2023-02-06T16:27:51.435Z,99838.69
2023-02-06T16:32:55.523Z,99838.31
2023-02-06T16:37:57.737Z,99827.19
2023-02-06T16:43:01.945Z,99825.03
2023-02-06T16:48:10.072Z,99846.56
2023-02-06T16:53:24.460Z,99837.88
2023-02-06T16:58:30.299Z,99843.19
2023-02-06T17:03:32.712Z,99839.09
2023-02-06T17:08:39.230Z,99845.78
2023-02-06T17:13:41.774Z,99829.66
2023-02-06T17:18:44.362Z,99826.69
2023-02-06T17:23:49.039Z,99827.47
2023-02-06T17:28:52.192Z,99833.84
2023-02-06T17:33:54.730Z,99819.00
2023-02-06T17:39:00.803Z,99837.31
2023-02-06T17:44:03.342Z,99838.03
2023-02-06T17:49:06.090Z,99833.06
2023-02-06T17:54:09.221Z,99821.81
2023-02-06T17:59:11.660Z,99827.91
2023-02-06T18:04:14.649Z,99815.69
2023-02-06T18:09:17.515Z,99808.28
2023-02-06T18:14:20.961Z,99818.25
2023-02-06T18:19:25.335Z,99811.81
2023-02-06T18:24:27.734Z,99800.03
2023-02-06T18:29:47.321Z,99801.22
2023-02-06T18:34:51.466Z,99807.00
2023-02-06T18:39:55.350Z,99793.94
2023-02-06T18:44:57.942Z,99808.13
2023-02-06T18:50:00.784Z,99816.31
2023-02-06T18:55:03.690Z,99814.16
2023-02-06T19:00:08.420Z,99805.00
2023-02-06T19:05:11.093Z,99806.50
2023-02-06T19:10:16.226Z,99793.59
2023-02-06T19:15:19.401Z,99793.06
2023-02-06T19:20:21.898Z,99801.06
2023-02-06T19:25:24.511Z,99810.13
2023-02-06T19:30:27.166Z,99804.22
2023-02-06T19:35:30.023Z,99804.94
2023-02-06T19:40:33.996Z,99798.28
2023-02-06T19:45:37.101Z,99803.53
2023-02-06T19:50:40.735Z,99798.31
2023-02-06T19:55:48.118Z,99798.75
2023-02-06T20:00:50.658Z,99805.47
2023-02-06T20:05:53.318Z,99812.09
2023-02-06T20:10:55.800Z,99824.47
2023-02-06T20:16:03.415Z,99824.94
2023-02-06T20:21:06.179Z,99827.81
2023-02-06T20:26:08.670Z,99815.69
2023-02-06T20:31:12.068Z,99814.41
2023-02-06T20:36:22.470Z,99800.34
2023-02-06T20:41:29.688Z,99810.19
2023-02-06T20:46:32.809Z,99828.69
2023-02-06T20:51:35.954Z,99833.28
2023-02-06T20:56:39.676Z,99821.19
2023-02-06T21:01:42.977Z,99816.69
2023-02-06T21:06:48.087Z,99819.38
2023-02-06T21:11:50.679Z,99811.41
2023-02-06T21:16:53.277Z,99806.69
2023-02-06T21:21:56.065Z,99802.41
2023-02-06T21:26:58.525Z,99790.72
2023-02-06T21:32:13.227Z,99781.38
2023-02-06T21:37:16.454Z,99787.06
2023-02-06T21:42:26.171Z,99778.81
2023-02-06T21:47:28.706Z,99799.19
2023-02-06T21:52:31.154Z,99798.13
2023-02-06T21:57:33.639Z,99782.75
2023-02-06T22:02:37.162Z,99771.88
2023-02-06T22:07:39.613Z,99777.38
2023-02-06T22:12:42.076Z,99762.41
2023-02-06T22:17:44.578Z,99771.19
2023-02-06T22:22:47.291Z,99782.06
2023-02-06T22:27:49.998Z,99782.75
2023-02-06T22:32:52.469Z,99775.13
2023-02-06T22:37:54.953Z,99774.94
2023-02-06T22:42:57.410Z,99778.44
2023-02-06T22:47:59.879Z,99776.25
2023-02-06T22:53:21.107Z,99775.53
2023-02-06T22:58:23.507Z,99776.41
2023-02-06T23:03:26.137Z,99795.78
2023-02-06T23:08:29.114Z,99796.06
2023-02-06T23:13:31.794Z,99805.81
2023-02-06T23:18:34.682Z,99795.91
2023-02-06T23:23:37.946Z,99803.31
2023-02-06T23:28:52.468Z,99811.16
2023-02-06T23:33:55.406Z,99803.50
2023-02-06T23:39:00.871Z,99825.69
2023-02-06T23:44:06.251Z,99838.69
2023-02-06T23:49:09.202Z,99846.38
2023-02-06T23:54:12.195Z,99842.84
2023-02-06T23:59:14.698Z,99850.91
